Terminal Aerodrome Forecast
Issued by NWS

Home | Current Version | Previous Version | Text Only | Print | Product List | Glossary On
Versions: 1 2 3 4 5 6 7 8 9 10 11 12 13 14 15 16 17 18 19 20 21 22 23 24 25 26 27
000
FTUS44 KMAF 051300 AAB
TAFHOB
TAF AMD
KHOB 051356Z 0514/0612 VRB04KT P6SM SCT005 SCT120 BKN200
      TEMPO 0514/0515 BKN005
     FM051500 18011KT P6SM SCT120
     FM051700 19014G22KT P6SM SCT120
     FM060100 18011KT P6SM SCT250
     FM060600 17006KT P6SM SCT250=

USA.gov is the U.S. government's official web portal to all federal, state and local government web resources and services.